Weather

Currently

Time Weather Temperature Precipitation Clouds Wind Wind Bumps Pressure
06:35 6,9 °C 5,7 °C 0,0 mm/h 93 % 0,7 m/s 1031,2 mb

Current values recorded by the weather station installed in the spa park. Data updated at 6:35.


Forecast

Time Weather Temperature Precipitation Clouds Wind Wind Bumps Pressure
06:00 9,6 °C 0 mm/h 84 % 1,6 m/s 3,8 m/s 1023 hPa
07:00 10,4 °C 0 mm/h 79 % 2 m/s 5,1 m/s 1023 hPa
08:00 11,7 °C 0 mm/h 61 % 2,6 m/s 6,9 m/s 1023 hPa
09:00 12,1 °C 0 mm/h 87 % 3,3 m/s 8,8 m/s 1023 hPa
10:00 10,9 °C 0,02 mm/h 100 % 3,4 m/s 9,9 m/s 1023 hPa
11:00 12,5 °C 0,01 mm/h 88 % 3,3 m/s 8,9 m/s 1023 hPa
12:00 13,1 °C 0 mm/h 80 % 3 m/s 8,8 m/s 1022 hPa
13:00 13,9 °C 0 mm/h 92 % 3 m/s 8,6 m/s 1022 hPa
14:00 14,9 °C 0 mm/h 57 % 3,5 m/s 8,9 m/s 1021 hPa
15:00 15,3 °C 0 mm/h 82 % 3,5 m/s 9,9 m/s 1021 hPa
16:00 15,4 °C 0 mm/h 55 % 3,3 m/s 10,2 m/s 1020 hPa
17:00 14,9 °C 0 mm/h 45 % 3,4 m/s 10,7 m/s 1020 hPa
18:00 14,3 °C 0 mm/h 54 % 3,5 m/s 9 m/s 1020 hPa
19:00 13,6 °C 0 mm/h 18 % 2,2 m/s 9 m/s 1020 hPa
20:00 12,8 °C 0 mm/h 7 % 2,7 m/s 7,6 m/s 1020 hPa
21:00 11,6 °C 0 mm/h 2 % 2,7 m/s 6,7 m/s 1020 hPa
22:00 10,8 °C 0 mm/h 55 % 2,1 m/s 6,7 m/s 1021 hPa
23:00 10,2 °C 0 mm/h 64 % 2 m/s 5 m/s 1021 hPa

Forecast data of ČHMÚ (Czech hydrometeorological institute) based on Aladin numerical model for Konstantinovy Lázně area. The data is updated daily at 6:00.

Time Weather Temperature Precipitation Clouds Wind Wind Bumps Pressure
00:00 9,5 °C 0 mm/h 54 % 2,1 m/s 4,9 m/s 1021 hPa
01:00 9,1 °C 0 mm/h 75 % 2,1 m/s 5,6 m/s 1021 hPa
02:00 8,8 °C 0 mm/h 87 % 2 m/s 4,8 m/s 1021 hPa
03:00 8,7 °C 0 mm/h 92 % 2 m/s 4,8 m/s 1021 hPa
04:00 8,6 °C 0 mm/h 88 % 2 m/s 4,8 m/s 1021 hPa
05:00 8,5 °C 0 mm/h 94 % 2 m/s 4,8 m/s 1021 hPa
06:00 8,7 °C 0 mm/h 95 % 2,2 m/s 5,3 m/s 1020 hPa
07:00 9,5 °C 0 mm/h 90 % 2,6 m/s 6,7 m/s 1021 hPa
08:00 10,4 °C 0 mm/h 95 % 2,3 m/s 6,8 m/s 1021 hPa
09:00 11,2 °C 0 mm/h 96 % 2,1 m/s 6,1 m/s 1021 hPa
10:00 12,4 °C 0 mm/h 94 % 2,3 m/s 6,1 m/s 1021 hPa
11:00 13,4 °C 0 mm/h 97 % 2,6 m/s 7,1 m/s 1020 hPa
12:00 13,8 °C 0 mm/h 99 % 2,9 m/s 7,8 m/s 1020 hPa
13:00 14,2 °C 0 mm/h 99 % 3,2 m/s 8,3 m/s 1020 hPa
14:00 14,6 °C 0 mm/h 99 % 2,9 m/s 8,5 m/s 1020 hPa
15:00 14,5 °C 0 mm/h 99 % 3 m/s 7,9 m/s 1020 hPa
16:00 14,7 °C 0 mm/h 99 % 3 m/s 8,2 m/s 1020 hPa
17:00 15 °C 0 mm/h 97 % 2,6 m/s 8 m/s 1020 hPa
18:00 15 °C 0 mm/h 95 % 2,2 m/s 6,6 m/s 1020 hPa
19:00 14,8 °C 0 mm/h 98 % 2,1 m/s 5,7 m/s 1020 hPa
20:00 14,5 °C 0 mm/h 94 % 1,8 m/s 5,3 m/s 1020 hPa
21:00 14,1 °C 0 mm/h 66 % 2 m/s 4,7 m/s 1020 hPa
22:00 13,5 °C 0 mm/h 55 % 2,1 m/s 5,1 m/s 1021 hPa
23:00 12,8 °C 0 mm/h 12 % 2,6 m/s 6,1 m/s 1021 hPa

Forecast data of ČHMÚ (Czech hydrometeorological institute) based on Aladin numerical model for Konstantinovy Lázně area. The data is updated daily at 6:00.

Time Weather Temperature Precipitation Clouds Wind Wind Bumps Pressure
00:00 12,4 °C 0 mm/h 28 % 2,3 m/s 6,2 m/s 1021 hPa
01:00 12 °C 0 mm/h 11 % 2,4 m/s 5,7 m/s 1021 hPa
02:00 11,5 °C 0 mm/h 0 % 2,4 m/s 5,8 m/s 1022 hPa
03:00 11 °C 0 mm/h 0 % 2,4 m/s 5,7 m/s 1022 hPa
04:00 10,6 °C 0 mm/h 0 % 2,3 m/s 5,6 m/s 1022 hPa
05:00 10,3 °C 0 mm/h 2 % 2,2 m/s 5,4 m/s 1022 hPa
06:00 10,2 °C 0 mm/h 2 % 2 m/s 4,9 m/s 1022 hPa
07:00 11,3 °C 0 mm/h 2 % 1,9 m/s 4,8 m/s 1022 hPa
08:00 13,2 °C 0 mm/h 3 % 2,3 m/s 6,2 m/s 1023 hPa
09:00 14,8 °C 0 mm/h 2 % 2,6 m/s 6,9 m/s 1023 hPa
10:00 16,1 °C 0 mm/h 22 % 2,6 m/s 7 m/s 1023 hPa
11:00 16,9 °C 0 mm/h 45 % 2,5 m/s 7 m/s 1022 hPa
12:00 18 °C 0 mm/h 22 % 2,6 m/s 7,1 m/s 1022 hPa
13:00 19,1 °C 0 mm/h 1 % 2,8 m/s 7,8 m/s 1022 hPa
14:00 19,9 °C 0 mm/h 0 % 2,7 m/s 8 m/s 1022 hPa
15:00 20,3 °C 0 mm/h 0 % 3 m/s 9,3 m/s 1021 hPa
16:00 20,8 °C 0 mm/h 4 % 3,8 m/s 9,9 m/s 1021 hPa
17:00 20,2 °C 0 mm/h 3 % 2,6 m/s 10,1 m/s 1021 hPa
18:00 19,6 °C 0 mm/h 0 % 3,2 m/s 9,5 m/s 1021 hPa
19:00 18,6 °C 0 mm/h 0 % 3 m/s 8,4 m/s 1021 hPa
20:00 17,1 °C 0 mm/h 0 % 3 m/s 7,7 m/s 1021 hPa
21:00 15,7 °C 0 mm/h 0 % 2,7 m/s 7,3 m/s 1021 hPa
22:00 14,4 °C 0 mm/h 0 % 2 m/s 6,4 m/s 1021 hPa
23:00 13,4 °C 0 mm/h 0 % 1,9 m/s 4,5 m/s 1022 hPa

Forecast data of ČHMÚ (Czech hydrometeorological institute) based on Aladin numerical model for Konstantinovy Lázně area. The data is updated daily at 6:00.